sensor_id;sensor_type;location;lat;lon;timestamp;pressure;altitude;pressure_sealevel;temperature;humidity
11198;BME280;5655;48.744;9.162;2022-07-22T00:00:44;96600.13;;;23.99;100.00
11198;BME280;5655;48.744;9.162;2022-07-22T00:03:10;96592.56;;;24.03;100.00
11198;BME280;5655;48.744;9.162;2022-07-22T00:05:35;96597.97;;;23.93;100.00
11198;BME280;5655;48.744;9.162;2022-07-22T00:08:01;96593.81;;;23.89;100.00
11198;BME280;5655;48.744;9.162;2022-07-22T00:10:26;96604.56;;;23.83;100.00
11198;BME280;5655;48.744;9.162;2022-07-22T00:12:52;96596.41;;;23.92;100.00
11198;BME280;5655;48.744;9.162;2022-07-22T00:15:17;96594.88;;;23.91;100.00
11198;BME280;5655;48.744;9.162;2022-07-22T00:17:42;96603.66;;;23.86;100.00
11198;BME280;5655;48.744;9.162;2022-07-22T00:20:08;96599.84;;;23.84;100.00
11198;BME280;5655;48.744;9.162;2022-07-22T00:22:34;96593.13;;;23.98;100.00
11198;BME280;5655;48.744;9.162;2022-07-22T00:25:00;96586.13;;;23.96;100.00
11198;BME280;5655;48.744;9.162;2022-07-22T00:27:25;96596.75;;;23.94;100.00
11198;BME280;5655;48.744;9.162;2022-07-22T00:29:51;96590.97;;;23.92;100.00
11198;BME280;5655;48.744;9.162;2022-07-22T00:32:16;96586.25;;;23.93;100.00
11198;BME280;5655;48.744;9.162;2022-07-22T00:34:41;96584.84;;;23.88;100.00
11198;BME280;5655;48.744;9.162;2022-07-22T00:37:07;96589.75;;;23.93;100.00
11198;BME280;5655;48.744;9.162;2022-07-22T00:39:33;96594.41;;;24.06;100.00
11198;BME280;5655;48.744;9.162;2022-07-22T00:41:58;96588.03;;;24.09;100.00
11198;BME280;5655;48.744;9.162;2022-07-22T00:44:24;96585.06;;;23.94;100.00
11198;BME280;5655;48.744;9.162;2022-07-22T00:46:49;96586.75;;;24.01;100.00
11198;BME280;5655;48.744;9.162;2022-07-22T00:49:14;96586.75;;;24.01;100.00
11198;BME280;5655;48.744;9.162;2022-07-22T00:51:40;96584.91;;;23.98;100.00
11198;BME280;5655;48.744;9.162;2022-07-22T00:54:07;96572.16;;;23.94;100.00
11198;BME280;5655;48.744;9.162;2022-07-22T00:56:33;96573.91;;;23.88;100.00
11198;BME280;5655;48.744;9.162;2022-07-22T00:59:02;96570.28;;;23.91;100.00
11198;BME280;5655;48.744;9.162;2022-07-22T01:01:28;96570.22;;;23.82;100.00
11198;BME280;5655;48.744;9.162;2022-07-22T01:03:54;96565.97;;;23.81;100.00
11198;BME280;5655;48.744;9.162;2022-07-22T01:06:19;96569.00;;;23.83;100.00
11198;BME280;5655;48.744;9.162;2022-07-22T01:08:44;96574.97;;;23.91;100.00
11198;BME280;5655;48.744;9.162;2022-07-22T01:11:13;96574.53;;;23.92;100.00
11198;BME280;5655;48.744;9.162;2022-07-22T01:13:40;96574.19;;;23.81;100.00
11198;BME280;5655;48.744;9.162;2022-07-22T01:16:06;96565.00;;;23.75;100.00
11198;BME280;5655;48.744;9.162;2022-07-22T01:18:32;96562.84;;;23.70;100.00
11198;BME280;5655;48.744;9.162;2022-07-22T01:20:58;96564.94;;;23.66;100.00
11198;BME280;5655;48.744;9.162;2022-07-22T01:23:23;96558.50;;;23.60;100.00
11198;BME280;5655;48.744;9.162;2022-07-22T01:25:48;96564.84;;;23.57;100.00
11198;BME280;5655;48.744;9.162;2022-07-22T01:28:14;96561.91;;;23.51;100.00
11198;BME280;5655;48.744;9.162;2022-07-22T01:30:39;96559.19;;;23.39;100.00
11198;BME280;5655;48.744;9.162;2022-07-22T01:33:05;96559.84;;;23.43;100.00
11198;BME280;5655;48.744;9.162;2022-07-22T01:35:30;96559.84;;;23.43;100.00
11198;BME280;5655;48.744;9.162;2022-07-22T01:37:55;96563.78;;;23.42;100.00
11198;BME280;5655;48.744;9.162;2022-07-22T01:40:21;96562.56;;;23.43;100.00
11198;BME280;5655;48.744;9.162;2022-07-22T01:42:46;96567.09;;;23.37;100.00
11198;BME280;5655;48.744;9.162;2022-07-22T01:45:12;96553.34;;;23.28;100.00
11198;BME280;5655;48.744;9.162;2022-07-22T01:47:37;96559.78;;;23.34;100.00
11198;BME280;5655;48.744;9.162;2022-07-22T01:50:05;96563.16;;;23.38;100.00
11198;BME280;5655;48.744;9.162;2022-07-22T01:52:31;96557.69;;;23.38;100.00
11198;BME280;5655;48.744;9.162;2022-07-22T01:54:56;96554.75;;;23.32;100.00
11198;BME280;5655;48.744;9.162;2022-07-22T01:57:22;96549.91;;;23.36;100.00
11198;BME280;5655;48.744;9.162;2022-07-22T01:59:47;96549.78;;;23.40;100.00
11198;BME280;5655;48.744;9.162;2022-07-22T02:02:12;96561.41;;;23.44;100.00
11198;BME280;5655;48.744;9.162;2022-07-22T02:04:38;96550.69;;;23.49;100.00
11198;BME280;5655;48.744;9.162;2022-07-22T02:07:03;96554.63;;;23.36;100.00
11198;BME280;5655;48.744;9.162;2022-07-22T02:09:28;96542.28;;;23.31;100.00
11198;BME280;5655;48.744;9.162;2022-07-22T02:11:54;96550.03;;;23.33;100.00
11198;BME280;5655;48.744;9.162;2022-07-22T02:14:19;96557.91;;;23.31;100.00
11198;BME280;5655;48.744;9.162;2022-07-22T02:16:45;96549.59;;;23.34;100.00
11198;BME280;5655;48.744;9.162;2022-07-22T02:19:10;96545.47;;;23.30;100.00
11198;BME280;5655;48.744;9.162;2022-07-22T02:21:35;96548.50;;;23.32;100.00
11198;BME280;5655;48.744;9.162;2022-07-22T02:24:01;96547.78;;;23.19;100.00
11198;BME280;5655;48.744;9.162;2022-07-22T02:26:27;96542.22;;;23.10;100.00
11198;BME280;5655;48.744;9.162;2022-07-22T02:28:52;96546.41;;;23.01;100.00
11198;BME280;5655;48.744;9.162;2022-07-22T02:31:18;96540.28;;;22.97;100.00
11198;BME280;5655;48.744;9.162;2022-07-22T02:33:45;96537.81;;;22.90;100.00
11198;BME280;5655;48.744;9.162;2022-07-22T02:36:11;96535.56;;;23.11;100.00
11198;BME280;5655;48.744;9.162;2022-07-22T02:38:36;96537.91;;;22.99;100.00
11198;BME280;5655;48.744;9.162;2022-07-22T02:41:02;96538.84;;;23.05;100.00
11198;BME280;5655;48.744;9.162;2022-07-22T02:43:27;96526.31;;;22.95;100.00
11198;BME280;5655;48.744;9.162;2022-07-22T02:45:53;96524.78;;;22.94;100.00
11198;BME280;5655;48.744;9.162;2022-07-22T02:48:18;96524.56;;;23.01;100.00
11198;BME280;5655;48.744;9.162;2022-07-22T02:50:48;96520.53;;;22.93;100.00
11198;BME280;5655;48.744;9.162;2022-07-22T02:53:14;96514.09;;;22.87;100.00
11198;BME280;5655;48.744;9.162;2022-07-22T02:55:39;96525.66;;;22.79;100.00
11198;BME280;5655;48.744;9.162;2022-07-22T02:58:06;96519.00;;;22.67;100.00
11198;BME280;5655;48.744;9.162;2022-07-22T03:00:33;96522.72;;;22.48;100.00
11198;BME280;5655;48.744;9.162;2022-07-22T03:02:58;96514.22;;;22.58;100.00
11198;BME280;5655;48.744;9.162;2022-07-22T03:05:24;96523.28;;;22.55;100.00
11198;BME280;5655;48.744;9.162;2022-07-22T03:07:49;96517.06;;;22.42;100.00
11198;BME280;5655;48.744;9.162;2022-07-22T03:10:14;96520.22;;;22.41;100.00
11198;BME280;5655;48.744;9.162;2022-07-22T03:12:40;96511.47;;;22.46;100.00
11198;BME280;5655;48.744;9.162;2022-07-22T03:15:06;96511.78;;;22.35;100.00
11198;BME280;5655;48.744;9.162;2022-07-22T03:17:35;96515.53;;;22.41;100.00
11198;BME280;5655;48.744;9.162;2022-07-22T03:20:02;96519.25;;;22.35;100.00
11198;BME280;5655;48.744;9.162;2022-07-22T03:22:28;96518.13;;;22.32;100.00
11198;BME280;5655;48.744;9.162;2022-07-22T03:24:53;96511.25;;;22.40;100.00
11198;BME280;5655;48.744;9.162;2022-07-22T03:27:19;96520.09;;;22.44;100.00
11198;BME280;5655;48.744;9.162;2022-07-22T03:29:44;96521.50;;;22.49;100.00
11198;BME280;5655;48.744;9.162;2022-07-22T03:32:09;96527.97;;;22.55;100.00
11198;BME280;5655;48.744;9.162;2022-07-22T03:34:35;96523.28;;;22.55;100.00
11198;BME280;5655;48.744;9.162;2022-07-22T03:37:00;96529.03;;;22.57;100.00
11198;BME280;5655;48.744;9.162;2022-07-22T03:39:25;96523.59;;;22.57;100.00
11198;BME280;5655;48.744;9.162;2022-07-22T03:41:51;96533.19;;;22.62;100.00
11198;BME280;5655;48.744;9.162;2022-07-22T03:44:16;96524.34;;;22.58;100.00
11198;BME280;5655;48.744;9.162;2022-07-22T03:46:41;96538.44;;;22.56;100.00
11198;BME280;5655;48.744;9.162;2022-07-22T03:49:06;96527.31;;;22.63;100.00
11198;BME280;5655;48.744;9.162;2022-07-22T03:51:32;96531.44;;;22.68;100.00
11198;BME280;5655;48.744;9.162;2022-07-22T03:53:57;96532.34;;;22.65;100.00
11198;BME280;5655;48.744;9.162;2022-07-22T03:56:22;96531.66;;;22.61;100.00
11198;BME280;5655;48.744;9.162;2022-07-22T03:58:48;96524.03;;;22.56;100.00
11198;BME280;5655;48.744;9.162;2022-07-22T04:01:13;96525.66;;;22.41;100.00
11198;BME280;5655;48.744;9.162;2022-07-22T04:03:38;96518.00;;;22.10;100.00
11198;BME280;5655;48.744;9.162;2022-07-22T04:06:04;96536.47;;;21.90;100.00
11198;BME280;5655;48.744;9.162;2022-07-22T04:08:31;96528.72;;;21.89;100.00
11198;BME280;5655;48.744;9.162;2022-07-22T04:10:57;96539.72;;;21.85;100.00
11198;BME280;5655;48.744;9.162;2022-07-22T04:13:22;96547.44;;;21.74;100.00
11198;BME280;5655;48.744;9.162;2022-07-22T04:15:47;96561.59;;;21.69;100.00
11198;BME280;5655;48.744;9.162;2022-07-22T04:18:13;96560.41;;;21.70;100.00
11198;BME280;5655;48.744;9.162;2022-07-22T04:20:38;96567.75;;;21.57;100.00
11198;BME280;5655;48.744;9.162;2022-07-22T04:23:03;96569.31;;;21.42;100.00
11198;BME280;5655;48.744;9.162;2022-07-22T04:25:29;96596.88;;;21.44;100.00
11198;BME280;5655;48.744;9.162;2022-07-22T04:27:54;96601.38;;;21.50;100.00
11198;BME280;5655;48.744;9.162;2022-07-22T04:30:21;96599.22;;;21.58;100.00
11198;BME280;5655;48.744;9.162;2022-07-22T04:32:46;96601.06;;;21.48;100.00
11198;BME280;5655;48.744;9.162;2022-07-22T04:35:12;96608.28;;;21.55;100.00
11198;BME280;5655;48.744;9.162;2022-07-22T04:37:37;96600.44;;;21.57;100.00
11198;BME280;5655;48.744;9.162;2022-07-22T04:40:03;96600.09;;;21.55;100.00
11198;BME280;5655;48.744;9.162;2022-07-22T04:42:28;96611.09;;;21.51;100.00
11198;BME280;5655;48.744;9.162;2022-07-22T04:44:54;96613.22;;;21.44;100.00
11198;BME280;5655;48.744;9.162;2022-07-22T04:47:19;96617.63;;;21.54;100.00
11198;BME280;5655;48.744;9.162;2022-07-22T04:49:44;96609.63;;;21.63;100.00
11198;BME280;5655;48.744;9.162;2022-07-22T04:52:10;96612.69;;;21.65;100.00
11198;BME280;5655;48.744;9.162;2022-07-22T04:54:35;96620.03;;;21.52;100.00
11198;BME280;5655;48.744;9.162;2022-07-22T04:57:01;96616.13;;;21.53;100.00
11198;BME280;5655;48.744;9.162;2022-07-22T04:59:26;96623.94;;;21.51;100.00
11198;BME280;5655;48.744;9.162;2022-07-22T05:01:51;96618.22;;;21.61;100.00
11198;BME280;5655;48.744;9.162;2022-07-22T05:04:17;96627.59;;;21.60;100.00
11198;BME280;5655;48.744;9.162;2022-07-22T05:06:42;96624.69;;;21.67;100.00
11198;BME280;5655;48.744;9.162;2022-07-22T05:09:07;96617.84;;;21.76;100.00
11198;BME280;5655;48.744;9.162;2022-07-22T05:11:33;96621.34;;;21.76;100.00
11198;BME280;5655;48.744;9.162;2022-07-22T05:13:58;96625.78;;;21.70;100.00
11198;BME280;5655;48.744;9.162;2022-07-22T05:16:24;96636.69;;;21.70;100.00
11198;BME280;5655;48.744;9.162;2022-07-22T05:18:49;96633.25;;;21.82;100.00
11198;BME280;5655;48.744;9.162;2022-07-22T05:21:14;96623.19;;;21.79;100.00
11198;BME280;5655;48.744;9.162;2022-07-22T05:23:40;96625.94;;;21.95;100.00
11198;BME280;5655;48.744;9.162;2022-07-22T05:26:05;96621.91;;;22.00;100.00
11198;BME280;5655;48.744;9.162;2022-07-22T05:28:31;96620.38;;;21.99;100.00
11198;BME280;5655;48.744;9.162;2022-07-22T05:30:56;96626.94;;;21.85;100.00
11198;BME280;5655;48.744;9.162;2022-07-22T05:33:21;96619.59;;;21.98;100.00
11198;BME280;5655;48.744;9.162;2022-07-22T05:35:47;96623.34;;;22.04;100.00
11198;BME280;5655;48.744;9.162;2022-07-22T05:38:13;96624.97;;;22.02;100.00
11198;BME280;5655;48.744;9.162;2022-07-22T05:40:38;96632.72;;;22.03;100.00
11198;BME280;5655;48.744;9.162;2022-07-22T05:43:03;96628.81;;;22.04;100.00
11198;BME280;5655;48.744;9.162;2022-07-22T05:45:29;96630.22;;;22.09;100.00
11198;BME280;5655;48.744;9.162;2022-07-22T05:47:54;96634.16;;;22.08;100.00
11198;BME280;5655;48.744;9.162;2022-07-22T05:50:19;96628.59;;;22.11;100.00
11198;BME280;5655;48.744;9.162;2022-07-22T05:52:45;96634.50;;;22.23;100.00
11198;BME280;5655;48.744;9.162;2022-07-22T05:55:10;96627.84;;;22.24;100.00
11198;BME280;5655;48.744;9.162;2022-07-22T05:57:36;96621.88;;;22.29;100.00
11198;BME280;5655;48.744;9.162;2022-07-22T06:00:03;96621.00;;;22.32;100.00
11198;BME280;5655;48.744;9.162;2022-07-22T06:02:28;96618.63;;;22.34;100.00
11198;BME280;5655;48.744;9.162;2022-07-22T06:04:54;96616.03;;;22.43;100.00
11198;BME280;5655;48.744;9.162;2022-07-22T06:07:20;96612.16;;;22.69;100.00
11198;BME280;5655;48.744;9.162;2022-07-22T06:09:45;96606.03;;;22.65;100.00
11198;BME280;5655;48.744;9.162;2022-07-22T06:12:11;96605.91;;;22.69;100.00
11198;BME280;5655;48.744;9.162;2022-07-22T06:14:36;96601.78;;;22.89;100.00
11198;BME280;5655;48.744;9.162;2022-07-22T06:17:02;96608.56;;;22.85;100.00
11198;BME280;5655;48.744;9.162;2022-07-22T06:19:28;96598.69;;;23.00;100.00
11198;BME280;5655;48.744;9.162;2022-07-22T06:21:54;96598.03;;;23.21;100.00
11198;BME280;5655;48.744;9.162;2022-07-22T06:24:20;96590.00;;;23.39;100.00
11198;BME280;5655;48.744;9.162;2022-07-22T06:26:45;96585.47;;;23.24;100.00
11198;BME280;5655;48.744;9.162;2022-07-22T06:29:10;96585.28;;;23.05;100.00
11198;BME280;5655;48.744;9.162;2022-07-22T06:31:36;96585.56;;;23.33;100.00
11198;BME280;5655;48.744;9.162;2022-07-22T06:34:01;96589.38;;;23.48;100.00
11198;BME280;5655;48.744;9.162;2022-07-22T06:36:31;96577.31;;;23.58;100.00
11198;BME280;5655;48.744;9.162;2022-07-22T06:38:56;96584.19;;;23.63;100.00
11198;BME280;5655;48.744;9.162;2022-07-22T06:41:21;96576.63;;;23.67;100.00
11198;BME280;5655;48.744;9.162;2022-07-22T06:43:47;96580.94;;;23.55;100.00
11198;BME280;5655;48.744;9.162;2022-07-22T06:46:12;96570.03;;;23.99;100.00
11198;BME280;5655;48.744;9.162;2022-07-22T06:48:37;96572.50;;;24.06;100.00
11198;BME280;5655;48.744;9.162;2022-07-22T06:51:03;96574.22;;;24.34;100.00
11198;BME280;5655;48.744;9.162;2022-07-22T06:53:28;96576.38;;;24.39;100.00
11198;BME280;5655;48.744;9.162;2022-07-22T06:55:54;96569.97;;;24.64;100.00
11198;BME280;5655;48.744;9.162;2022-07-22T06:58:19;96566.00;;;24.96;100.00
11198;BME280;5655;48.744;9.162;2022-07-22T07:00:45;96562.25;;;24.71;100.00
11198;BME280;5655;48.744;9.162;2022-07-22T07:03:10;96562.28;;;24.80;100.00
11198;BME280;5655;48.744;9.162;2022-07-22T07:05:36;96566.53;;;24.81;100.00
11198;BME280;5655;48.744;9.162;2022-07-22T07:08:01;96549.28;;;25.03;100.00
11198;BME280;5655;48.744;9.162;2022-07-22T07:10:26;96552.41;;;25.59;100.00
11198;BME280;5655;48.744;9.162;2022-07-22T07:12:56;96548.03;;;25.71;100.00
11198;BME280;5655;48.744;9.162;2022-07-22T07:15:22;96538.72;;;25.68;100.00
11198;BME280;5655;48.744;9.162;2022-07-22T07:17:48;96544.78;;;25.91;100.00
11198;BME280;5655;48.744;9.162;2022-07-22T07:20:13;96533.53;;;25.80;100.00
11198;BME280;5655;48.744;9.162;2022-07-22T07:22:38;96523.03;;;25.78;100.00
11198;BME280;5655;48.744;9.162;2022-07-22T07:25:05;96526.69;;;25.84;100.00
11198;BME280;5655;48.744;9.162;2022-07-22T07:27:31;96515.47;;;26.24;100.00
11198;BME280;5655;48.744;9.162;2022-07-22T07:29:57;96514.69;;;26.33;100.00
11198;BME280;5655;48.744;9.162;2022-07-22T07:32:22;96514.28;;;26.07;100.00
11198;BME280;5655;48.744;9.162;2022-07-22T07:34:47;96508.44;;;26.32;100.00
11198;BME280;5655;48.744;9.162;2022-07-22T07:37:13;96512.13;;;26.29;100.00
11198;BME280;5655;48.744;9.162;2022-07-22T07:39:38;96518.19;;;26.42;100.00
11198;BME280;5655;48.744;9.162;2022-07-22T07:42:04;96502.00;;;26.44;100.00
11198;BME280;5655;48.744;9.162;2022-07-22T07:44:29;96506.00;;;26.67;100.00
11198;BME280;5655;48.744;9.162;2022-07-22T07:46:55;96502.56;;;26.57;100.00
11198;BME280;5655;48.744;9.162;2022-07-22T07:49:20;96498.91;;;26.51;100.00
11198;BME280;5655;48.744;9.162;2022-07-22T07:51:45;96505.56;;;26.69;100.00
11198;BME280;5655;48.744;9.162;2022-07-22T07:54:12;96496.63;;;26.83;100.00
11198;BME280;5655;48.744;9.162;2022-07-22T07:56:38;96505.44;;;26.96;100.00
11198;BME280;5655;48.744;9.162;2022-07-22T07:59:03;96504.84;;;26.92;100.00
11198;BME280;5655;48.744;9.162;2022-07-22T08:01:29;96506.34;;;26.93;100.00
11198;BME280;5655;48.744;9.162;2022-07-22T08:03:54;96501.63;;;27.17;100.00
11198;BME280;5655;48.744;9.162;2022-07-22T08:06:19;96500.34;;;27.03;100.00
11198;BME280;5655;48.744;9.162;2022-07-22T08:08:45;96498.13;;;26.84;100.00
11198;BME280;5655;48.744;9.162;2022-07-22T08:11:10;96494.50;;;26.87;100.00
11198;BME280;5655;48.744;9.162;2022-07-22T08:13:35;96508.00;;;26.99;100.00
11198;BME280;5655;48.744;9.162;2022-07-22T08:16:01;96499.28;;;27.01;100.00
11198;BME280;5655;48.744;9.162;2022-07-22T08:18:27;96494.75;;;27.36;100.00
11198;BME280;5655;48.744;9.162;2022-07-22T08:20:54;96497.81;;;27.38;100.00
11198;BME280;5655;48.744;9.162;2022-07-22T08:23:19;96492.66;;;27.31;100.00
11198;BME280;5655;48.744;9.162;2022-07-22T08:25:44;96490.50;;;27.35;100.00
11198;BME280;5655;48.744;9.162;2022-07-22T08:28:10;96491.75;;;27.34;100.00
11198;BME280;5655;48.744;9.162;2022-07-22T08:30:35;96500.19;;;27.45;100.00
11198;BME280;5655;48.744;9.162;2022-07-22T08:33:02;96489.25;;;27.36;100.00
11198;BME280;5655;48.744;9.162;2022-07-22T08:35:28;96492.31;;;27.38;100.00
11198;BME280;5655;48.744;9.162;2022-07-22T08:37:54;96487.28;;;27.61;100.00
11198;BME280;5655;48.744;9.162;2022-07-22T08:40:19;96483.28;;;27.62;100.00
11198;BME280;5655;48.744;9.162;2022-07-22T08:42:46;96485.19;;;27.85;100.00
11198;BME280;5655;48.744;9.162;2022-07-22T08:45:12;96482.53;;;28.05;100.00
11198;BME280;5655;48.744;9.162;2022-07-22T08:47:38;96474.31;;;28.20;100.00
11198;BME280;5655;48.744;9.162;2022-07-22T08:50:04;96470.97;;;28.30;100.00
11198;BME280;5655;48.744;9.162;2022-07-22T08:52:30;96475.00;;;28.50;100.00
11198;BME280;5655;48.744;9.162;2022-07-22T08:54:55;96460.84;;;28.57;100.00
11198;BME280;5655;48.744;9.162;2022-07-22T08:57:21;96463.56;;;28.36;100.00
11198;BME280;5655;48.744;9.162;2022-07-22T09:02:15;96447.53;;;28.70;100.00
11198;BME280;5655;48.744;9.162;2022-07-22T09:04:59;96453.97;;;28.67;100.00
11198;BME280;5655;48.744;9.162;2022-07-22T09:07:25;96454.72;;;28.82;100.00
11198;BME280;5655;48.744;9.162;2022-07-22T09:09:52;96453.00;;;28.84;100.00
11198;BME280;5655;48.744;9.162;2022-07-22T09:12:17;96454.56;;;28.91;100.00
11198;BME280;5655;48.744;9.162;2022-07-22T09:14:48;96459.81;;;29.09;100.00
11198;BME280;5655;48.744;9.162;2022-07-22T09:19:59;96455.84;;;29.30;100.00
11198;BME280;5655;48.744;9.162;2022-07-22T09:24:58;96450.84;;;29.55;100.00
11198;BME280;5655;48.744;9.162;2022-07-22T09:27:25;96456.63;;;29.57;100.00
11198;BME280;5655;48.744;9.162;2022-07-22T09:29:50;96453.22;;;29.42;100.00
11198;BME280;5655;48.744;9.162;2022-07-22T09:32:16;96467.56;;;29.46;100.00
11198;BME280;5655;48.744;9.162;2022-07-22T09:34:41;96452.66;;;29.38;100.00
11198;BME280;5655;48.744;9.162;2022-07-22T09:37:07;96452.53;;;29.47;100.00
11198;BME280;5655;48.744;9.162;2022-07-22T09:39:32;96444.19;;;29.67;100.00
11198;BME280;5655;48.744;9.162;2022-07-22T09:42:00;96448.19;;;29.66;100.00
11198;BME280;5655;48.744;9.162;2022-07-22T09:44:26;96432.81;;;29.85;100.00
11198;BME280;5655;48.744;9.162;2022-07-22T09:46:51;96441.25;;;29.76;100.00
11198;BME280;5655;48.744;9.162;2022-07-22T09:49:34;96441.81;;;29.80;100.00
11198;BME280;5655;48.744;9.162;2022-07-22T09:52:01;96439.00;;;30.00;100.00
11198;BME280;5655;48.744;9.162;2022-07-22T09:54:28;96433.66;;;30.23;100.00
11198;BME280;5655;48.744;9.162;2022-07-22T09:56:54;96424.56;;;30.16;100.00
11198;BME280;5655;48.744;9.162;2022-07-22T09:59:20;96435.22;;;30.35;100.00
11198;BME280;5655;48.744;9.162;2022-07-22T10:01:47;96424.88;;;30.61;100.00
11198;BME280;5655;48.744;9.162;2022-07-22T10:04:14;96421.22;;;30.44;100.00
11198;BME280;5655;48.744;9.162;2022-07-22T10:06:41;96411.94;;;30.41;100.00
11198;BME280;5655;48.744;9.162;2022-07-22T10:09:07;96413.97;;;30.09;100.00
11198;BME280;5655;48.744;9.162;2022-07-22T10:11:36;96415.84;;;30.24;100.00
11198;BME280;5655;48.744;9.162;2022-07-22T10:14:02;96402.84;;;30.35;100.00
11198;BME280;5655;48.744;9.162;2022-07-22T10:16:28;96414.34;;;30.65;100.00
11198;BME280;5655;48.744;9.162;2022-07-22T10:18:54;96412.63;;;30.68;100.00
11198;BME280;5655;48.744;9.162;2022-07-22T10:21:31;96404.63;;;30.81;100.00
11198;BME280;5655;48.744;9.162;2022-07-22T10:24:12;96392.00;;;30.69;100.00
11198;BME280;5655;48.744;9.162;2022-07-22T10:26:52;96397.47;;;31.05;100.00
11198;BME280;5655;48.744;9.162;2022-07-22T10:34:40;96385.38;;;31.03;100.00
11198;BME280;5655;48.744;9.162;2022-07-22T10:45:24;96381.25;;;32.08;100.00
11198;BME280;5655;48.744;9.162;2022-07-22T10:48:04;96377.47;;;32.33;100.00
11198;BME280;5655;48.744;9.162;2022-07-22T10:55:32;96367.41;;;32.35;99.68
11198;BME280;5655;48.744;9.162;2022-07-22T10:57:58;96361.81;;;32.52;100.00
11198;BME280;5655;48.744;9.162;2022-07-22T11:00:23;96366.63;;;32.40;100.00
11198;BME280;5655;48.744;9.162;2022-07-22T11:02:49;96359.25;;;32.71;100.00
11198;BME280;5655;48.744;9.162;2022-07-22T11:05:24;96362.78;;;32.71;99.99
11198;BME280;5655;48.744;9.162;2022-07-22T11:07:50;96360.41;;;32.98;97.59
11198;BME280;5655;48.744;9.162;2022-07-22T11:10:18;96361.84;;;33.10;89.99
11198;BME280;5655;48.744;9.162;2022-07-22T11:12:45;96355.75;;;33.22;87.11
11198;BME280;5655;48.744;9.162;2022-07-22T11:15:11;96354.44;;;33.29;91.79
11198;BME280;5655;48.744;9.162;2022-07-22T11:17:37;96353.78;;;33.06;82.38
11198;BME280;5655;48.744;9.162;2022-07-22T11:20:08;96348.53;;;33.03;84.78
11198;BME280;5655;48.744;9.162;2022-07-22T11:22:35;96348.59;;;32.92;86.35
11198;BME280;5655;48.744;9.162;2022-07-22T11:25:02;96350.25;;;33.06;76.18
11198;BME280;5655;48.744;9.162;2022-07-22T11:27:29;96354.94;;;33.33;74.67
11198;BME280;5655;48.744;9.162;2022-07-22T11:29:55;96339.16;;;33.52;72.76
11198;BME280;5655;48.744;9.162;2022-07-22T11:32:22;96335.34;;;33.91;76.94
11198;BME280;5655;48.744;9.162;2022-07-22T11:34:48;96331.88;;;34.09;80.22
11198;BME280;5655;48.744;9.162;2022-07-22T11:37:21;96325.25;;;34.17;78.89
11198;BME280;5655;48.744;9.162;2022-07-22T11:39:51;96324.50;;;34.41;88.76
11198;BME280;5655;48.744;9.162;2022-07-22T11:42:17;96317.44;;;34.16;68.55
11198;BME280;5655;48.744;9.162;2022-07-22T11:44:42;96318.34;;;34.48;67.81
11198;BME280;5655;48.744;9.162;2022-07-22T11:47:09;96311.34;;;34.60;63.34
11198;BME280;5655;48.744;9.162;2022-07-22T11:49:36;96310.56;;;34.66;62.30
11198;BME280;5655;48.744;9.162;2022-07-22T11:52:03;96314.06;;;34.90;66.46
11198;BME280;5655;48.744;9.162;2022-07-22T11:54:29;96310.81;;;34.86;63.86
11198;BME280;5655;48.744;9.162;2022-07-22T11:56:55;96303.28;;;35.00;63.88
11198;BME280;5655;48.744;9.162;2022-07-22T11:59:21;96300.13;;;35.09;59.36
11198;BME280;5655;48.744;9.162;2022-07-22T12:01:48;96301.50;;;35.02;59.90
11198;BME280;5655;48.744;9.162;2022-07-22T12:04:17;96284.50;;;35.25;60.52
11198;BME280;5655;48.744;9.162;2022-07-22T12:06:43;96293.47;;;35.49;61.52
11198;BME280;5655;48.744;9.162;2022-07-22T12:09:13;96282.72;;;35.40;56.55
11198;BME280;5655;48.744;9.162;2022-07-22T12:11:40;96282.34;;;35.49;55.57
11198;BME280;5655;48.744;9.162;2022-07-22T12:14:07;96278.34;;;35.64;55.99
11198;BME280;5655;48.744;9.162;2022-07-22T12:16:34;96270.44;;;35.81;55.23
11198;BME280;5655;48.744;9.162;2022-07-22T12:19:05;96268.09;;;35.85;54.40
11198;BME280;5655;48.744;9.162;2022-07-22T12:21:33;96271.41;;;35.83;53.99
11198;BME280;5655;48.744;9.162;2022-07-22T12:24:07;96258.88;;;36.29;52.17
11198;BME280;5655;48.744;9.162;2022-07-22T12:26:48;96255.44;;;36.10;51.75
11198;BME280;5655;48.744;9.162;2022-07-22T12:37:15;96252.34;;;36.40;49.82
11198;BME280;5655;48.744;9.162;2022-07-22T12:42:28;96257.94;;;36.27;47.61
11198;BME280;5655;48.744;9.162;2022-07-22T12:53:16;96234.50;;;36.69;47.81
11198;BME280;5655;48.744;9.162;2022-07-22T12:55:46;96243.41;;;37.15;47.57
11198;BME280;5655;48.744;9.162;2022-07-22T12:58:13;96239.00;;;37.40;46.61
11198;BME280;5655;48.744;9.162;2022-07-22T13:00:41;96234.50;;;37.58;45.37
11198;BME280;5655;48.744;9.162;2022-07-22T13:03:07;96238.19;;;37.53;46.84
11198;BME280;5655;48.744;9.162;2022-07-22T13:05:33;96242.28;;;37.52;44.70
11198;BME280;5655;48.744;9.162;2022-07-22T13:08:00;96237.19;;;37.30;44.80
11198;BME280;5655;48.744;9.162;2022-07-22T13:10:25;96228.63;;;37.69;45.89
11198;BME280;5655;48.744;9.162;2022-07-22T13:12:52;96235.66;;;37.62;44.60
11198;BME280;5655;48.744;9.162;2022-07-22T13:15:18;96231.00;;;37.93;44.01
11198;BME280;5655;48.744;9.162;2022-07-22T13:17:44;96230.63;;;37.89;44.80
11198;BME280;5655;48.744;9.162;2022-07-22T13:20:11;96233.03;;;37.85;43.64
11198;BME280;5655;48.744;9.162;2022-07-22T13:22:38;96232.25;;;38.05;43.74
11198;BME280;5655;48.744;9.162;2022-07-22T13:25:04;96215.81;;;37.74;43.34
11198;BME280;5655;48.744;9.162;2022-07-22T13:27:30;96217.22;;;37.88;42.70
11198;BME280;5655;48.744;9.162;2022-07-22T13:29:55;96211.88;;;37.97;41.68
11198;BME280;5655;48.744;9.162;2022-07-22T13:32:20;96218.56;;;38.23;42.59
11198;BME280;5655;48.744;9.162;2022-07-22T13:34:46;96207.09;;;38.05;42.49
11198;BME280;5655;48.744;9.162;2022-07-22T13:37:11;96213.66;;;38.15;41.03
11198;BME280;5655;48.744;9.162;2022-07-22T13:39:37;96210.97;;;38.02;41.92
11198;BME280;5655;48.744;9.162;2022-07-22T13:42:02;96224.94;;;38.31;41.38